createdAt,value
2022-08-18T00:09:59.740Z,97520.06
2022-08-18T00:20:04.081Z,97487.78
2022-08-18T00:30:10.625Z,97482.59
2022-08-18T00:40:17.918Z,97480.72
2022-08-18T00:50:28.963Z,97458.53
2022-08-18T01:00:31.758Z,97441.91
2022-08-18T01:10:34.749Z,97438.88
2022-08-18T01:21:04.214Z,97450.56
2022-08-18T01:31:09.438Z,97451.56
2022-08-18T01:41:27.027Z,97455.59
2022-08-18T01:51:40.097Z,97439.47
2022-08-18T02:01:53.105Z,97427.56
2022-08-18T02:11:56.610Z,97437.09
2022-08-18T02:21:59.023Z,97421.53
2022-08-18T02:32:02.183Z,97417.63
2022-08-18T02:42:08.254Z,97410.06
2022-08-18T02:52:11.050Z,97400.16
2022-08-18T03:02:14.099Z,97381.63
2022-08-18T03:12:16.541Z,97383.94
2022-08-18T03:22:28.513Z,97376.81
2022-08-18T03:32:32.246Z,97344.12
2022-08-18T03:42:34.839Z,97359.53
2022-08-18T03:52:41.824Z,97349.94
2022-08-18T04:02:44.683Z,97347.75
2022-08-18T04:12:47.407Z,97381.09
2022-08-18T04:22:50.128Z,97385.44
2022-08-18T04:32:53.179Z,97397.50
2022-08-18T04:42:56.570Z,97402.53
2022-08-18T04:53:17.396Z,97425.28
2022-08-18T05:03:20.964Z,97421.00
2022-08-18T05:13:26.313Z,97415.13
2022-08-18T05:23:30.148Z,97418.84
2022-08-18T05:33:32.759Z,97415.91
2022-08-18T05:43:45.963Z,97419.34
2022-08-18T05:54:16.865Z,97430.19
2022-08-18T06:04:38.380Z,97448.72
2022-08-18T06:14:42.858Z,97458.66
2022-08-18T06:25:33.198Z,97445.03
2022-08-18T06:35:46.377Z,97501.13
2022-08-18T06:56:37.857Z,97468.59
2022-08-18T07:06:41.989Z,97472.28
2022-08-18T07:17:17.748Z,97490.75
2022-08-18T07:27:42.668Z,97481.75
2022-08-18T07:38:41.411Z,97522.31
2022-08-18T07:49:06.768Z,97536.78
2022-08-18T08:10:36.991Z,97479.72
2022-08-18T08:20:49.593Z,97466.59
2022-08-18T08:41:30.077Z,97452.63
2022-08-18T08:51:45.508Z,97461.16
2022-08-18T09:02:32.008Z,97473.34
2022-08-18T09:13:29.244Z,97506.34
2022-08-18T09:23:43.177Z,97498.91
2022-08-18T09:34:49.920Z,97464.63
2022-08-18T09:44:57.572Z,97457.38
2022-08-18T10:06:07.142Z,97400.38
2022-08-18T10:16:31.170Z,97410.53
2022-08-18T10:27:14.715Z,97435.78
2022-08-18T10:37:45.273Z,97418.25
2022-08-18T10:48:26.937Z,97415.25
2022-08-18T10:59:28.885Z,97419.78
2022-08-18T11:09:34.560Z,97375.78
2022-08-18T11:19:46.334Z,97350.59
2022-08-18T11:30:05.893Z,97354.50
2022-08-18T11:40:22.551Z,97350.41
2022-08-18T12:01:54.055Z,97355.16
2022-08-18T12:12:01.651Z,97369.91
2022-08-18T12:22:18.950Z,97368.22
2022-08-18T12:32:49.596Z,97374.22
2022-08-18T12:43:05.740Z,97377.81
2022-08-18T13:04:21.536Z,97329.03
2022-08-18T13:14:30.414Z,97343.94
2022-08-18T13:24:38.540Z,97340.41
2022-08-18T13:34:49.909Z,97327.81
2022-08-18T13:44:57.579Z,97329.75
2022-08-18T13:55:30.991Z,97341.34
2022-08-18T14:05:36.894Z,97346.06
2022-08-18T14:15:58.378Z,97349.19
2022-08-18T14:26:20.718Z,97348.66
2022-08-18T14:36:30.218Z,97347.19
2022-08-18T14:46:33.895Z,97356.16
2022-08-18T14:56:39.103Z,97353.22
2022-08-18T15:06:56.746Z,97362.38
2022-08-18T15:17:13.290Z,97364.84
2022-08-18T15:27:19.678Z,97369.19
2022-08-18T15:37:43.587Z,97381.66
2022-08-18T15:47:48.518Z,97384.31
2022-08-18T15:57:53.312Z,97365.34
2022-08-18T16:08:01.718Z,97361.53
2022-08-18T16:18:07.449Z,97365.06
2022-08-18T16:28:15.122Z,97355.44
2022-08-18T16:38:20.504Z,97355.91
2022-08-18T16:48:28.318Z,97353.47
2022-08-18T16:58:50.939Z,97350.00
2022-08-18T17:08:55.253Z,97364.25
2022-08-18T17:19:00.549Z,97355.41
2022-08-18T17:29:16.187Z,97344.81
2022-08-18T17:39:24.875Z,97341.63
2022-08-18T17:50:00.155Z,97348.16
2022-08-18T18:00:19.159Z,97348.59
2022-08-18T18:10:30.418Z,97355.00
2022-08-18T18:20:42.747Z,97353.81
2022-08-18T18:30:47.603Z,97350.78
2022-08-18T18:41:13.755Z,97369.81
2022-08-18T18:51:33.854Z,97362.41
2022-08-18T19:02:01.249Z,97383.12
2022-08-18T19:12:26.294Z,97375.47
2022-08-18T19:22:45.057Z,97386.63
2022-08-18T19:32:58.505Z,97386.66
2022-08-18T19:43:11.688Z,97383.84
2022-08-18T19:53:45.833Z,97393.06
2022-08-18T20:04:39.183Z,97392.75
2022-08-18T20:14:44.248Z,97415.66
2022-08-18T20:25:05.975Z,97417.78
2022-08-18T20:35:25.167Z,97421.19
2022-08-18T20:45:35.219Z,97427.47
2022-08-18T20:56:02.297Z,97430.69
2022-08-18T21:06:37.912Z,97428.72
2022-08-18T21:16:45.563Z,97436.62
2022-08-18T21:26:49.025Z,97449.19
2022-08-18T21:36:54.234Z,97446.44
2022-08-18T21:47:07.105Z,97450.19
2022-08-18T21:57:28.708Z,97479.38
2022-08-18T22:07:35.885Z,97482.00
2022-08-18T22:17:51.062Z,97484.41
2022-08-18T22:27:57.559Z,97488.16
2022-08-18T22:38:01.729Z,97489.16
2022-08-18T22:48:04.944Z,97499.78
2022-08-18T22:58:08.266Z,97501.22
2022-08-18T23:08:13.200Z,97488.34
2022-08-18T23:18:19.992Z,97495.28
2022-08-18T23:28:24.980Z,97470.37
2022-08-18T23:38:31.758Z,97479.84
2022-08-18T23:48:35.147Z,97473.25
2022-08-18T23:58:37.964Z,97469.53
